sensor_id;sensor_type;location;lat;lon;timestamp;P1;durP1;ratioP1;P2;durP2;ratioP2
20731;SDS011;10527;52.124;5.196;2023-06-24T00:00:36;3.65;;;2.72;;
20731;SDS011;10527;52.124;5.196;2023-06-24T00:03:04;3.33;;;2.70;;
20731;SDS011;10527;52.124;5.196;2023-06-24T00:05:34;3.83;;;2.67;;
20731;SDS011;10527;52.124;5.196;2023-06-24T00:08:01;3.65;;;3.03;;
20731;SDS011;10527;52.124;5.196;2023-06-24T00:10:28;3.78;;;2.85;;
20731;SDS011;10527;52.124;5.196;2023-06-24T00:12:56;3.67;;;2.92;;
20731;SDS011;10527;52.124;5.196;2023-06-24T00:15:28;4.30;;;3.13;;
20731;SDS011;10527;52.124;5.196;2023-06-24T00:17:55;3.58;;;2.78;;
20731;SDS011;10527;52.124;5.196;2023-06-24T00:20:31;4.15;;;2.80;;
20731;SDS011;10527;52.124;5.196;2023-06-24T00:22:59;4.28;;;3.20;;
20731;SDS011;10527;52.124;5.196;2023-06-24T00:25:26;5.03;;;3.45;;
20731;SDS011;10527;52.124;5.196;2023-06-24T00:27:53;4.45;;;3.40;;
20731;SDS011;10527;52.124;5.196;2023-06-24T00:30:23;4.78;;;3.17;;
20731;SDS011;10527;52.124;5.196;2023-06-24T00:32:52;3.40;;;3.05;;
20731;SDS011;10527;52.124;5.196;2023-06-24T00:35:19;4.78;;;3.50;;
20731;SDS011;10527;52.124;5.196;2023-06-24T00:37:46;6.07;;;3.88;;
20731;SDS011;10527;52.124;5.196;2023-06-24T00:40:13;6.55;;;4.80;;
20731;SDS011;10527;52.124;5.196;2023-06-24T00:42:42;6.00;;;4.18;;
20731;SDS011;10527;52.124;5.196;2023-06-24T00:45:12;6.60;;;3.97;;
20731;SDS011;10527;52.124;5.196;2023-06-24T00:47:39;5.47;;;3.88;;
20731;SDS011;10527;52.124;5.196;2023-06-24T00:50:07;3.67;;;2.90;;
20731;SDS011;10527;52.124;5.196;2023-06-24T00:52:38;5.15;;;2.90;;
20731;SDS011;10527;52.124;5.196;2023-06-24T00:55:09;3.90;;;3.17;;
20731;SDS011;10527;52.124;5.196;2023-06-24T00:57:40;3.17;;;2.60;;
20731;SDS011;10527;52.124;5.196;2023-06-24T01:00:10;3.85;;;2.90;;
20731;SDS011;10527;52.124;5.196;2023-06-24T01:02:43;3.88;;;2.78;;
20731;SDS011;10527;52.124;5.196;2023-06-24T01:05:14;3.10;;;2.55;;
20731;SDS011;10527;52.124;5.196;2023-06-24T01:07:41;4.30;;;2.72;;
20731;SDS011;10527;52.124;5.196;2023-06-24T01:10:10;3.83;;;2.88;;
20731;SDS011;10527;52.124;5.196;2023-06-24T01:12:39;3.80;;;2.65;;
20731;SDS011;10527;52.124;5.196;2023-06-24T01:15:07;3.30;;;2.92;;
20731;SDS011;10527;52.124;5.196;2023-06-24T01:32:38;4.30;;;2.78;;
20731;SDS011;10527;52.124;5.196;2023-06-24T01:35:19;3.33;;;2.47;;
20731;SDS011;10527;52.124;5.196;2023-06-24T01:37:54;3.45;;;2.95;;
20731;SDS011;10527;52.124;5.196;2023-06-24T01:40:26;5.00;;;3.72;;
20731;SDS011;10527;52.124;5.196;2023-06-24T01:43:08;3.20;;;2.80;;
20731;SDS011;10527;52.124;5.196;2023-06-24T01:45:42;3.67;;;3.28;;
20731;SDS011;10527;52.124;5.196;2023-06-24T01:48:24;3.08;;;2.60;;
20731;SDS011;10527;52.124;5.196;2023-06-24T01:51:12;6.20;;;3.53;;
20731;SDS011;10527;52.124;5.196;2023-06-24T01:53:59;4.13;;;3.20;;
20731;SDS011;10527;52.124;5.196;2023-06-24T01:56:36;3.72;;;2.63;;
20731;SDS011;10527;52.124;5.196;2023-06-24T01:59:05;4.95;;;3.03;;
20731;SDS011;10527;52.124;5.196;2023-06-24T02:01:35;3.72;;;3.10;;
20731;SDS011;10527;52.124;5.196;2023-06-24T02:04:06;2.97;;;2.42;;
20731;SDS011;10527;52.124;5.196;2023-06-24T02:06:36;3.72;;;2.90;;
20731;SDS011;10527;52.124;5.196;2023-06-24T02:09:06;4.57;;;3.45;;
20731;SDS011;10527;52.124;5.196;2023-06-24T02:11:34;4.15;;;3.10;;
20731;SDS011;10527;52.124;5.196;2023-06-24T02:14:04;3.50;;;2.80;;
20731;SDS011;10527;52.124;5.196;2023-06-24T02:16:33;4.30;;;2.97;;
20731;SDS011;10527;52.124;5.196;2023-06-24T02:19:03;3.20;;;2.78;;
20731;SDS011;10527;52.124;5.196;2023-06-24T02:21:34;2.97;;;2.63;;
20731;SDS011;10527;52.124;5.196;2023-06-24T02:24:05;4.45;;;3.25;;
20731;SDS011;10527;52.124;5.196;2023-06-24T02:26:33;4.32;;;3.47;;
20731;SDS011;10527;52.124;5.196;2023-06-24T02:29:02;4.45;;;3.17;;
20731;SDS011;10527;52.124;5.196;2023-06-24T02:31:32;3.38;;;3.08;;
20731;SDS011;10527;52.124;5.196;2023-06-24T02:33:59;4.07;;;3.15;;
20731;SDS011;10527;52.124;5.196;2023-06-24T02:36:26;4.13;;;3.35;;
20731;SDS011;10527;52.124;5.196;2023-06-24T02:38:54;3.78;;;3.05;;
20731;SDS011;10527;52.124;5.196;2023-06-24T02:41:21;5.30;;;3.42;;
20731;SDS011;10527;52.124;5.196;2023-06-24T02:43:48;4.63;;;3.05;;
20731;SDS011;10527;52.124;5.196;2023-06-24T02:46:15;4.72;;;3.75;;
20731;SDS011;10527;52.124;5.196;2023-06-24T02:48:43;3.67;;;3.25;;
20731;SDS011;10527;52.124;5.196;2023-06-24T02:51:13;4.35;;;3.17;;
20731;SDS011;10527;52.124;5.196;2023-06-24T02:53:40;3.75;;;3.00;;
20731;SDS011;10527;52.124;5.196;2023-06-24T02:56:08;4.07;;;3.22;;
20731;SDS011;10527;52.124;5.196;2023-06-24T02:58:40;4.70;;;3.17;;
20731;SDS011;10527;52.124;5.196;2023-06-24T03:01:08;4.63;;;4.00;;
20731;SDS011;10527;52.124;5.196;2023-06-24T03:03:37;3.95;;;3.55;;
20731;SDS011;10527;52.124;5.196;2023-06-24T03:06:05;4.13;;;3.67;;
20731;SDS011;10527;52.124;5.196;2023-06-24T03:08:33;4.07;;;3.42;;
20731;SDS011;10527;52.124;5.196;2023-06-24T03:11:00;4.70;;;3.58;;
20731;SDS011;10527;52.124;5.196;2023-06-24T03:13:27;4.78;;;3.42;;
20731;SDS011;10527;52.124;5.196;2023-06-24T03:15:54;4.20;;;3.17;;
20731;SDS011;10527;52.124;5.196;2023-06-24T03:18:21;4.75;;;3.33;;
20731;SDS011;10527;52.124;5.196;2023-06-24T03:20:47;4.30;;;3.17;;
20731;SDS011;10527;52.124;5.196;2023-06-24T03:23:14;4.75;;;3.70;;
20731;SDS011;10527;52.124;5.196;2023-06-24T03:25:42;4.35;;;3.25;;
20731;SDS011;10527;52.124;5.196;2023-06-24T03:28:08;5.00;;;3.63;;
20731;SDS011;10527;52.124;5.196;2023-06-24T03:30:35;4.28;;;3.75;;
20731;SDS011;10527;52.124;5.196;2023-06-24T03:33:02;3.83;;;3.03;;
20731;SDS011;10527;52.124;5.196;2023-06-24T03:35:32;5.10;;;3.63;;
20731;SDS011;10527;52.124;5.196;2023-06-24T03:38:00;5.45;;;3.95;;
20731;SDS011;10527;52.124;5.196;2023-06-24T03:40:27;4.60;;;3.33;;
20731;SDS011;10527;52.124;5.196;2023-06-24T03:42:56;5.63;;;3.90;;
20731;SDS011;10527;52.124;5.196;2023-06-24T03:45:23;5.20;;;3.78;;
20731;SDS011;10527;52.124;5.196;2023-06-24T03:47:51;4.60;;;3.83;;
20731;SDS011;10527;52.124;5.196;2023-06-24T03:50:18;4.82;;;4.25;;
20731;SDS011;10527;52.124;5.196;2023-06-24T03:52:45;4.30;;;3.55;;
20731;SDS011;10527;52.124;5.196;2023-06-24T03:55:12;4.57;;;3.70;;
20731;SDS011;10527;52.124;5.196;2023-06-24T03:57:38;4.10;;;3.53;;
20731;SDS011;10527;52.124;5.196;2023-06-24T04:00:05;4.15;;;3.60;;
20731;SDS011;10527;52.124;5.196;2023-06-24T04:02:42;5.45;;;3.85;;
20731;SDS011;10527;52.124;5.196;2023-06-24T04:05:11;3.97;;;3.13;;
20731;SDS011;10527;52.124;5.196;2023-06-24T04:07:38;4.15;;;3.47;;
20731;SDS011;10527;52.124;5.196;2023-06-24T04:10:06;5.35;;;3.58;;
20731;SDS011;10527;52.124;5.196;2023-06-24T04:12:38;5.18;;;3.40;;
20731;SDS011;10527;52.124;5.196;2023-06-24T04:15:06;3.65;;;3.33;;
20731;SDS011;10527;52.124;5.196;2023-06-24T04:17:34;4.85;;;3.63;;
20731;SDS011;10527;52.124;5.196;2023-06-24T04:20:01;4.18;;;3.20;;
20731;SDS011;10527;52.124;5.196;2023-06-24T04:22:39;3.50;;;3.10;;
20731;SDS011;10527;52.124;5.196;2023-06-24T04:25:08;4.85;;;3.75;;
20731;SDS011;10527;52.124;5.196;2023-06-24T04:27:35;4.63;;;3.47;;
20731;SDS011;10527;52.124;5.196;2023-06-24T04:30:02;4.38;;;3.47;;
20731;SDS011;10527;52.124;5.196;2023-06-24T04:32:30;5.13;;;3.85;;
20731;SDS011;10527;52.124;5.196;2023-06-24T04:35:00;4.03;;;3.30;;
20731;SDS011;10527;52.124;5.196;2023-06-24T04:37:27;4.32;;;3.55;;
20731;SDS011;10527;52.124;5.196;2023-06-24T04:39:54;4.53;;;3.63;;
20731;SDS011;10527;52.124;5.196;2023-06-24T04:42:21;3.78;;;2.80;;
20731;SDS011;10527;52.124;5.196;2023-06-24T04:44:48;4.13;;;3.25;;
20731;SDS011;10527;52.124;5.196;2023-06-24T04:47:17;5.68;;;3.58;;
20731;SDS011;10527;52.124;5.196;2023-06-24T04:49:45;4.30;;;3.50;;
20731;SDS011;10527;52.124;5.196;2023-06-24T04:52:11;4.38;;;3.50;;
20731;SDS011;10527;52.124;5.196;2023-06-24T04:54:39;5.47;;;3.35;;
20731;SDS011;10527;52.124;5.196;2023-06-24T04:57:08;4.38;;;3.30;;
20731;SDS011;10527;52.124;5.196;2023-06-24T04:59:49;4.90;;;3.70;;
20731;SDS011;10527;52.124;5.196;2023-06-24T05:02:15;4.38;;;3.60;;
20731;SDS011;10527;52.124;5.196;2023-06-24T05:04:42;3.60;;;3.15;;
20731;SDS011;10527;52.124;5.196;2023-06-24T05:07:09;3.70;;;2.88;;
20731;SDS011;10527;52.124;5.196;2023-06-24T05:09:36;5.45;;;3.40;;
20731;SDS011;10527;52.124;5.196;2023-06-24T05:12:04;4.25;;;3.35;;
20731;SDS011;10527;52.124;5.196;2023-06-24T05:14:33;5.38;;;3.50;;
20731;SDS011;10527;52.124;5.196;2023-06-24T05:17:02;5.97;;;2.97;;
20731;SDS011;10527;52.124;5.196;2023-06-24T05:19:33;5.18;;;3.22;;
20731;SDS011;10527;52.124;5.196;2023-06-24T05:22:00;5.03;;;3.58;;
20731;SDS011;10527;52.124;5.196;2023-06-24T05:24:26;5.30;;;3.53;;
20731;SDS011;10527;52.124;5.196;2023-06-24T05:26:53;4.45;;;3.50;;
20731;SDS011;10527;52.124;5.196;2023-06-24T05:29:20;5.38;;;3.38;;
20731;SDS011;10527;52.124;5.196;2023-06-24T05:31:47;3.60;;;2.80;;
20731;SDS011;10527;52.124;5.196;2023-06-24T05:34:15;3.10;;;2.65;;
20731;SDS011;10527;52.124;5.196;2023-06-24T05:36:44;4.40;;;3.20;;
20731;SDS011;10527;52.124;5.196;2023-06-24T05:39:12;4.38;;;3.22;;
20731;SDS011;10527;52.124;5.196;2023-06-24T05:41:39;6.05;;;3.35;;
20731;SDS011;10527;52.124;5.196;2023-06-24T05:44:07;3.58;;;3.17;;
20731;SDS011;10527;52.124;5.196;2023-06-24T05:46:36;3.40;;;2.83;;
20731;SDS011;10527;52.124;5.196;2023-06-24T05:49:03;6.13;;;2.50;;
20731;SDS011;10527;52.124;5.196;2023-06-24T05:51:30;4.65;;;3.35;;
20731;SDS011;10527;52.124;5.196;2023-06-24T05:53:57;3.22;;;2.50;;
20731;SDS011;10527;52.124;5.196;2023-06-24T05:56:24;4.80;;;2.97;;
20731;SDS011;10527;52.124;5.196;2023-06-24T05:58:55;5.97;;;3.15;;
20731;SDS011;10527;52.124;5.196;2023-06-24T06:01:22;3.65;;;2.80;;
20731;SDS011;10527;52.124;5.196;2023-06-24T06:03:49;6.30;;;3.40;;
20731;SDS011;10527;52.124;5.196;2023-06-24T06:06:29;8.75;;;2.97;;
20731;SDS011;10527;52.124;5.196;2023-06-24T06:08:56;4.28;;;2.80;;
20731;SDS011;10527;52.124;5.196;2023-06-24T06:11:23;4.15;;;2.63;;
20731;SDS011;10527;52.124;5.196;2023-06-24T06:13:50;5.22;;;3.10;;
20731;SDS011;10527;52.124;5.196;2023-06-24T06:16:18;4.60;;;2.80;;
20731;SDS011;10527;52.124;5.196;2023-06-24T06:18:45;7.93;;;3.53;;
20731;SDS011;10527;52.124;5.196;2023-06-24T06:21:21;4.22;;;2.75;;
20731;SDS011;10527;52.124;5.196;2023-06-24T06:23:48;3.65;;;2.80;;
20731;SDS011;10527;52.124;5.196;2023-06-24T06:26:14;3.95;;;2.60;;
20731;SDS011;10527;52.124;5.196;2023-06-24T06:28:42;3.35;;;2.80;;
20731;SDS011;10527;52.124;5.196;2023-06-24T06:31:09;4.47;;;2.63;;
20731;SDS011;10527;52.124;5.196;2023-06-24T06:33:36;4.00;;;3.25;;
20731;SDS011;10527;52.124;5.196;2023-06-24T06:36:02;7.30;;;3.70;;
20731;SDS011;10527;52.124;5.196;2023-06-24T06:38:30;4.00;;;3.13;;
20731;SDS011;10527;52.124;5.196;2023-06-24T06:41:00;4.53;;;3.03;;
20731;SDS011;10527;52.124;5.196;2023-06-24T06:43:27;6.20;;;2.92;;
20731;SDS011;10527;52.124;5.196;2023-06-24T06:45:54;4.50;;;3.17;;
20731;SDS011;10527;52.124;5.196;2023-06-24T06:48:20;4.45;;;2.85;;
20731;SDS011;10527;52.124;5.196;2023-06-24T06:50:47;3.80;;;2.80;;
20731;SDS011;10527;52.124;5.196;2023-06-24T06:53:15;4.15;;;3.10;;
20731;SDS011;10527;52.124;5.196;2023-06-24T06:55:42;3.85;;;2.53;;
20731;SDS011;10527;52.124;5.196;2023-06-24T06:58:09;4.30;;;2.95;;
20731;SDS011;10527;52.124;5.196;2023-06-24T07:00:36;6.25;;;3.05;;
20731;SDS011;10527;52.124;5.196;2023-06-24T07:03:03;3.70;;;2.78;;
20731;SDS011;10527;52.124;5.196;2023-06-24T07:05:30;7.10;;;3.03;;
20731;SDS011;10527;52.124;5.196;2023-06-24T07:08:05;4.22;;;3.03;;
20731;SDS011;10527;52.124;5.196;2023-06-24T07:10:38;4.75;;;2.92;;
20731;SDS011;10527;52.124;5.196;2023-06-24T07:13:05;5.65;;;3.20;;
20731;SDS011;10527;52.124;5.196;2023-06-24T07:15:32;5.03;;;2.50;;
20731;SDS011;10527;52.124;5.196;2023-06-24T07:17:59;6.28;;;2.83;;
20731;SDS011;10527;52.124;5.196;2023-06-24T07:20:36;4.38;;;3.45;;
20731;SDS011;10527;52.124;5.196;2023-06-24T07:23:05;4.78;;;2.90;;
20731;SDS011;10527;52.124;5.196;2023-06-24T07:25:32;4.00;;;3.13;;
20731;SDS011;10527;52.124;5.196;2023-06-24T07:28:01;4.72;;;2.97;;
20731;SDS011;10527;52.124;5.196;2023-06-24T07:30:27;4.22;;;3.35;;
20731;SDS011;10527;52.124;5.196;2023-06-24T07:32:54;4.22;;;3.08;;
20731;SDS011;10527;52.124;5.196;2023-06-24T07:35:22;3.80;;;2.65;;
20731;SDS011;10527;52.124;5.196;2023-06-24T07:37:49;4.88;;;2.47;;
20731;SDS011;10527;52.124;5.196;2023-06-24T07:40:15;3.83;;;2.85;;
20731;SDS011;10527;52.124;5.196;2023-06-24T07:42:42;3.95;;;2.70;;
20731;SDS011;10527;52.124;5.196;2023-06-24T07:45:09;3.60;;;2.50;;
20731;SDS011;10527;52.124;5.196;2023-06-24T07:47:36;3.30;;;2.65;;
20731;SDS011;10527;52.124;5.196;2023-06-24T07:52:38;3.08;;;2.33;;
20731;SDS011;10527;52.124;5.196;2023-06-24T07:55:14;4.30;;;2.70;;
20731;SDS011;10527;52.124;5.196;2023-06-24T07:57:46;4.95;;;2.65;;
20731;SDS011;10527;52.124;5.196;2023-06-24T08:03:01;4.45;;;2.17;;
20731;SDS011;10527;52.124;5.196;2023-06-24T08:05:44;3.15;;;2.33;;
20731;SDS011;10527;52.124;5.196;2023-06-24T08:08:19;4.32;;;2.28;;
20731;SDS011;10527;52.124;5.196;2023-06-24T08:10:46;5.28;;;2.33;;
20731;SDS011;10527;52.124;5.196;2023-06-24T08:13:16;4.20;;;2.50;;
20731;SDS011;10527;52.124;5.196;2023-06-24T08:15:42;5.85;;;2.67;;
20731;SDS011;10527;52.124;5.196;2023-06-24T08:18:24;4.50;;;3.00;;
20731;SDS011;10527;52.124;5.196;2023-06-24T08:20:52;5.38;;;2.72;;
20731;SDS011;10527;52.124;5.196;2023-06-24T08:23:19;4.43;;;3.00;;
20731;SDS011;10527;52.124;5.196;2023-06-24T08:25:47;2.92;;;2.25;;
20731;SDS011;10527;52.124;5.196;2023-06-24T08:28:13;3.55;;;2.80;;
20731;SDS011;10527;52.124;5.196;2023-06-24T08:30:40;4.20;;;2.60;;
20731;SDS011;10527;52.124;5.196;2023-06-24T08:33:07;5.25;;;2.80;;
20731;SDS011;10527;52.124;5.196;2023-06-24T08:35:34;4.43;;;2.78;;
20731;SDS011;10527;52.124;5.196;2023-06-24T08:38:01;4.32;;;2.45;;
20731;SDS011;10527;52.124;5.196;2023-06-24T08:40:28;4.32;;;2.90;;
20731;SDS011;10527;52.124;5.196;2023-06-24T08:42:55;3.80;;;2.60;;
20731;SDS011;10527;52.124;5.196;2023-06-24T08:45:25;3.20;;;2.38;;
20731;SDS011;10527;52.124;5.196;2023-06-24T08:47:52;3.33;;;2.58;;
20731;SDS011;10527;52.124;5.196;2023-06-24T08:50:23;4.20;;;2.75;;
20731;SDS011;10527;52.124;5.196;2023-06-24T08:52:55;6.35;;;2.75;;
20731;SDS011;10527;52.124;5.196;2023-06-24T08:55:43;3.53;;;2.45;;
20731;SDS011;10527;52.124;5.196;2023-06-24T08:58:12;3.90;;;2.97;;
20731;SDS011;10527;52.124;5.196;2023-06-24T09:00:40;4.10;;;2.90;;
20731;SDS011;10527;52.124;5.196;2023-06-24T09:03:08;3.38;;;2.55;;
20731;SDS011;10527;52.124;5.196;2023-06-24T09:05:36;3.50;;;2.22;;
20731;SDS011;10527;52.124;5.196;2023-06-24T09:08:03;3.83;;;3.00;;
20731;SDS011;10527;52.124;5.196;2023-06-24T09:10:34;3.53;;;2.60;;
20731;SDS011;10527;52.124;5.196;2023-06-24T09:13:03;4.30;;;2.60;;
20731;SDS011;10527;52.124;5.196;2023-06-24T09:15:37;4.15;;;2.60;;
20731;SDS011;10527;52.124;5.196;2023-06-24T09:18:05;4.95;;;2.80;;
20731;SDS011;10527;52.124;5.196;2023-06-24T09:20:32;5.68;;;2.92;;
20731;SDS011;10527;52.124;5.196;2023-06-24T09:23:06;4.68;;;3.25;;
20731;SDS011;10527;52.124;5.196;2023-06-24T09:25:32;4.85;;;3.00;;
20731;SDS011;10527;52.124;5.196;2023-06-24T09:28:00;5.50;;;2.83;;
20731;SDS011;10527;52.124;5.196;2023-06-24T09:30:29;5.85;;;3.42;;
20731;SDS011;10527;52.124;5.196;2023-06-24T09:32:56;4.43;;;3.40;;
20731;SDS011;10527;52.124;5.196;2023-06-24T09:35:25;4.72;;;3.47;;
20731;SDS011;10527;52.124;5.196;2023-06-24T09:37:53;5.15;;;3.42;;
20731;SDS011;10527;52.124;5.196;2023-06-24T09:40:25;6.10;;;4.25;;
20731;SDS011;10527;52.124;5.196;2023-06-24T09:42:53;4.82;;;3.33;;
20731;SDS011;10527;52.124;5.196;2023-06-24T09:45:29;4.03;;;3.50;;
20731;SDS011;10527;52.124;5.196;2023-06-24T09:47:57;5.93;;;3.95;;
20731;SDS011;10527;52.124;5.196;2023-06-24T09:50:24;5.32;;;3.70;;
20731;SDS011;10527;52.124;5.196;2023-06-24T09:52:51;4.68;;;3.50;;
20731;SDS011;10527;52.124;5.196;2023-06-24T09:55:23;9.02;;;3.40;;
20731;SDS011;10527;52.124;5.196;2023-06-24T09:57:51;7.03;;;4.18;;
20731;SDS011;10527;52.124;5.196;2023-06-24T10:00:20;3.78;;;3.20;;
20731;SDS011;10527;52.124;5.196;2023-06-24T10:02:48;6.50;;;3.92;;
20731;SDS011;10527;52.124;5.196;2023-06-24T10:05:16;6.50;;;3.60;;
20731;SDS011;10527;52.124;5.196;2023-06-24T10:07:43;5.43;;;3.65;;
20731;SDS011;10527;52.124;5.196;2023-06-24T10:10:10;5.25;;;3.78;;
20731;SDS011;10527;52.124;5.196;2023-06-24T10:12:37;5.32;;;3.28;;
20731;SDS011;10527;52.124;5.196;2023-06-24T10:15:05;4.80;;;3.33;;
20731;SDS011;10527;52.124;5.196;2023-06-24T10:17:33;6.50;;;3.55;;
20731;SDS011;10527;52.124;5.196;2023-06-24T10:20:03;5.10;;;4.30;;
20731;SDS011;10527;52.124;5.196;2023-06-24T10:22:33;5.72;;;4.20;;
20731;SDS011;10527;52.124;5.196;2023-06-24T10:25:05;5.93;;;4.45;;
20731;SDS011;10527;52.124;5.196;2023-06-24T10:27:39;5.18;;;3.70;;
20731;SDS011;10527;52.124;5.196;2023-06-24T10:30:09;4.40;;;3.45;;
20731;SDS011;10527;52.124;5.196;2023-06-24T10:32:51;4.75;;;3.20;;
20731;SDS011;10527;52.124;5.196;2023-06-24T10:35:41;4.97;;;3.95;;
20731;SDS011;10527;52.124;5.196;2023-06-24T10:38:10;4.57;;;2.67;;
20731;SDS011;10527;52.124;5.196;2023-06-24T10:40:41;6.53;;;3.70;;
20731;SDS011;10527;52.124;5.196;2023-06-24T10:45:54;7.88;;;4.55;;
20731;SDS011;10527;52.124;5.196;2023-06-24T10:48:24;6.72;;;4.15;;
20731;SDS011;10527;52.124;5.196;2023-06-24T10:50:51;5.43;;;4.00;;
20731;SDS011;10527;52.124;5.196;2023-06-24T10:53:18;5.13;;;3.88;;
20731;SDS011;10527;52.124;5.196;2023-06-24T10:55:45;5.40;;;4.60;;
20731;SDS011;10527;52.124;5.196;2023-06-24T10:58:13;5.20;;;3.58;;
20731;SDS011;10527;52.124;5.196;2023-06-24T11:00:42;5.50;;;3.92;;
20731;SDS011;10527;52.124;5.196;2023-06-24T11:03:14;5.88;;;4.63;;
20731;SDS011;10527;52.124;5.196;2023-06-24T11:05:45;6.95;;;4.60;;
20731;SDS011;10527;52.124;5.196;2023-06-24T11:08:16;5.47;;;3.97;;
20731;SDS011;10527;52.124;5.196;2023-06-24T11:10:46;7.25;;;4.38;;
20731;SDS011;10527;52.124;5.196;2023-06-24T11:13:15;8.13;;;3.72;;
20731;SDS011;10527;52.124;5.196;2023-06-24T11:15:46;5.75;;;4.32;;
20731;SDS011;10527;52.124;5.196;2023-06-24T11:18:13;8.15;;;4.00;;
20731;SDS011;10527;52.124;5.196;2023-06-24T11:20:41;6.15;;;3.95;;
20731;SDS011;10527;52.124;5.196;2023-06-24T11:23:09;5.70;;;3.67;;
20731;SDS011;10527;52.124;5.196;2023-06-24T11:25:42;4.75;;;3.88;;
20731;SDS011;10527;52.124;5.196;2023-06-24T11:28:13;4.70;;;3.55;;
20731;SDS011;10527;52.124;5.196;2023-06-24T11:30:47;5.45;;;4.43;;
20731;SDS011;10527;52.124;5.196;2023-06-24T11:33:25;4.95;;;3.88;;
20731;SDS011;10527;52.124;5.196;2023-06-24T11:35:54;5.13;;;2.92;;
20731;SDS011;10527;52.124;5.196;2023-06-24T11:38:22;4.68;;;2.75;;
20731;SDS011;10527;52.124;5.196;2023-06-24T11:40:49;5.03;;;3.45;;
20731;SDS011;10527;52.124;5.196;2023-06-24T11:43:16;5.65;;;3.38;;
20731;SDS011;10527;52.124;5.196;2023-06-24T11:45:42;3.72;;;2.88;;
20731;SDS011;10527;52.124;5.196;2023-06-24T11:48:09;4.43;;;3.10;;
20731;SDS011;10527;52.124;5.196;2023-06-24T11:50:39;4.35;;;2.95;;
20731;SDS011;10527;52.124;5.196;2023-06-24T11:53:06;4.32;;;3.38;;
20731;SDS011;10527;52.124;5.196;2023-06-24T11:55:33;4.43;;;3.42;;
20731;SDS011;10527;52.124;5.196;2023-06-24T11:58:03;3.25;;;2.90;;
20731;SDS011;10527;52.124;5.196;2023-06-24T12:00:40;5.65;;;2.38;;
20731;SDS011;10527;52.124;5.196;2023-06-24T12:03:11;3.10;;;2.80;;
20731;SDS011;10527;52.124;5.196;2023-06-24T12:05:39;5.18;;;3.60;;
20731;SDS011;10527;52.124;5.196;2023-06-24T12:08:12;4.68;;;3.35;;
20731;SDS011;10527;52.124;5.196;2023-06-24T12:10:43;4.13;;;2.17;;
20731;SDS011;10527;52.124;5.196;2023-06-24T12:13:11;3.53;;;2.70;;
20731;SDS011;10527;52.124;5.196;2023-06-24T12:15:38;3.85;;;2.35;;
20731;SDS011;10527;52.124;5.196;2023-06-24T12:18:06;5.95;;;3.25;;
20731;SDS011;10527;52.124;5.196;2023-06-24T12:20:33;3.78;;;2.80;;
20731;SDS011;10527;52.124;5.196;2023-06-24T12:23:04;4.93;;;3.17;;
20731;SDS011;10527;52.124;5.196;2023-06-24T12:25:34;4.32;;;2.97;;
20731;SDS011;10527;52.124;5.196;2023-06-24T12:28:01;6.50;;;3.17;;
20731;SDS011;10527;52.124;5.196;2023-06-24T12:30:28;3.40;;;2.88;;
20731;SDS011;10527;52.124;5.196;2023-06-24T12:32:55;7.00;;;2.92;;
20731;SDS011;10527;52.124;5.196;2023-06-24T12:35:23;4.18;;;2.65;;
20731;SDS011;10527;52.124;5.196;2023-06-24T12:37:53;3.38;;;2.92;;
20731;SDS011;10527;52.124;5.196;2023-06-24T12:40:20;3.92;;;3.05;;
20731;SDS011;10527;52.124;5.196;2023-06-24T12:42:47;4.63;;;2.83;;
20731;SDS011;10527;52.124;5.196;2023-06-24T12:45:14;3.97;;;3.00;;
20731;SDS011;10527;52.124;5.196;2023-06-24T12:47:41;2.97;;;2.42;;
20731;SDS011;10527;52.124;5.196;2023-06-24T12:50:08;3.75;;;2.92;;
20731;SDS011;10527;52.124;5.196;2023-06-24T12:52:36;4.22;;;3.03;;
20731;SDS011;10527;52.124;5.196;2023-06-24T12:55:04;4.72;;;3.78;;
20731;SDS011;10527;52.124;5.196;2023-06-24T12:57:33;4.32;;;3.00;;
20731;SDS011;10527;52.124;5.196;2023-06-24T13:00:00;4.00;;;2.83;;
20731;SDS011;10527;52.124;5.196;2023-06-24T13:02:31;3.63;;;2.78;;
20731;SDS011;10527;52.124;5.196;2023-06-24T13:04:58;3.45;;;2.72;;
20731;SDS011;10527;52.124;5.196;2023-06-24T13:07:25;6.70;;;3.03;;
20731;SDS011;10527;52.124;5.196;2023-06-24T13:09:52;3.60;;;2.65;;
20731;SDS011;10527;52.124;5.196;2023-06-24T13:12:19;3.60;;;2.90;;
20731;SDS011;10527;52.124;5.196;2023-06-24T13:14:46;5.50;;;3.22;;
20731;SDS011;10527;52.124;5.196;2023-06-24T13:17:13;3.50;;;2.63;;
20731;SDS011;10527;52.124;5.196;2023-06-24T13:19:41;3.80;;;2.60;;
20731;SDS011;10527;52.124;5.196;2023-06-24T13:22:08;3.45;;;2.80;;
20731;SDS011;10527;52.124;5.196;2023-06-24T13:24:38;5.72;;;2.63;;
20731;SDS011;10527;52.124;5.196;2023-06-24T13:27:05;3.42;;;2.35;;
20731;SDS011;10527;52.124;5.196;2023-06-24T13:29:32;4.72;;;2.50;;
20731;SDS011;10527;52.124;5.196;2023-06-24T13:31:59;3.97;;;2.70;;
20731;SDS011;10527;52.124;5.196;2023-06-24T13:34:26;3.70;;;2.88;;
20731;SDS011;10527;52.124;5.196;2023-06-24T13:36:53;4.03;;;2.80;;
20731;SDS011;10527;52.124;5.196;2023-06-24T13:39:20;4.85;;;3.65;;
20731;SDS011;10527;52.124;5.196;2023-06-24T13:41:50;5.20;;;3.65;;
20731;SDS011;10527;52.124;5.196;2023-06-24T13:44:19;3.55;;;2.38;;
20731;SDS011;10527;52.124;5.196;2023-06-24T13:46:48;3.65;;;2.90;;
20731;SDS011;10527;52.124;5.196;2023-06-24T13:49:16;3.78;;;3.10;;
20731;SDS011;10527;52.124;5.196;2023-06-24T13:51:43;4.05;;;3.13;;
20731;SDS011;10527;52.124;5.196;2023-06-24T13:54:10;6.07;;;2.90;;
20731;SDS011;10527;52.124;5.196;2023-06-24T13:56:37;3.63;;;2.60;;
20731;SDS011;10527;52.124;5.196;2023-06-24T13:59:04;3.35;;;2.70;;
20731;SDS011;10527;52.124;5.196;2023-06-24T14:01:31;3.72;;;2.67;;
20731;SDS011;10527;52.124;5.196;2023-06-24T14:03:58;4.25;;;3.08;;
20731;SDS011;10527;52.124;5.196;2023-06-24T14:06:25;3.63;;;2.60;;
20731;SDS011;10527;52.124;5.196;2023-06-24T14:08:52;3.47;;;2.58;;
20731;SDS011;10527;52.124;5.196;2023-06-24T14:11:19;3.47;;;2.67;;
20731;SDS011;10527;52.124;5.196;2023-06-24T14:13:46;3.47;;;2.42;;
20731;SDS011;10527;52.124;5.196;2023-06-24T14:16:13;5.35;;;2.88;;
20731;SDS011;10527;52.124;5.196;2023-06-24T14:18:40;4.38;;;2.75;;
20731;SDS011;10527;52.124;5.196;2023-06-24T14:21:08;5.60;;;2.92;;
20731;SDS011;10527;52.124;5.196;2023-06-24T14:23:35;4.32;;;2.75;;
20731;SDS011;10527;52.124;5.196;2023-06-24T14:26:02;3.65;;;2.65;;
20731;SDS011;10527;52.124;5.196;2023-06-24T14:28:30;4.60;;;2.78;;
20731;SDS011;10527;52.124;5.196;2023-06-24T14:30:57;7.03;;;2.80;;
20731;SDS011;10527;52.124;5.196;2023-06-24T14:33:23;4.75;;;3.03;;
20731;SDS011;10527;52.124;5.196;2023-06-24T14:35:50;3.45;;;2.58;;
20731;SDS011;10527;52.124;5.196;2023-06-24T14:38:18;4.30;;;2.63;;
20731;SDS011;10527;52.124;5.196;2023-06-24T14:40:45;4.68;;;2.60;;
20731;SDS011;10527;52.124;5.196;2023-06-24T14:43:12;4.15;;;2.40;;
20731;SDS011;10527;52.124;5.196;2023-06-24T14:45:39;3.30;;;2.42;;
20731;SDS011;10527;52.124;5.196;2023-06-24T14:48:06;3.30;;;2.00;;
20731;SDS011;10527;52.124;5.196;2023-06-24T14:50:33;8.75;;;6.85;;
20731;SDS011;10527;52.124;5.196;2023-06-24T14:53:02;9.73;;;7.00;;
20731;SDS011;10527;52.124;5.196;2023-06-24T14:55:29;5.80;;;4.88;;
20731;SDS011;10527;52.124;5.196;2023-06-24T14:57:56;3.95;;;3.55;;
20731;SDS011;10527;52.124;5.196;2023-06-24T15:00:24;5.88;;;3.15;;
20731;SDS011;10527;52.124;5.196;2023-06-24T15:02:53;3.55;;;2.75;;
20731;SDS011;10527;52.124;5.196;2023-06-24T15:05:20;3.60;;;2.33;;
20731;SDS011;10527;52.124;5.196;2023-06-24T15:07:47;3.33;;;2.78;;
20731;SDS011;10527;52.124;5.196;2023-06-24T15:10:14;4.40;;;2.60;;
20731;SDS011;10527;52.124;5.196;2023-06-24T15:12:41;3.65;;;2.25;;
20731;SDS011;10527;52.124;5.196;2023-06-24T15:15:08;5.85;;;4.43;;
20731;SDS011;10527;52.124;5.196;2023-06-24T15:17:35;5.22;;;2.72;;
20731;SDS011;10527;52.124;5.196;2023-06-24T15:20:09;3.40;;;2.90;;